Time;durP1;ratioP1;P1;durP2;ratioP2;P2;SDS_P1;SDS_P2;PMS_P1;PMS_P2;Temp;Humidity;BMP_temperature;BMP_pressure;BME280_temperature;BME280_humidity;BME280_pressure;Samples;Min_cycle;Max_cycle;Signal;HPM_P1;HPM_P2
2023/05/21 00:02:17;;;;;;;5.37;3.60;;;;;;;;;;5077549;28;20265;-65
2023/05/21 00:04:45;;;;;;;4.77;3.23;;;;;;;;;;5077537;28;20246;-65
2023/05/21 00:07:14;;;;;;;6.30;3.50;;;;;;;;;;5077840;28;20217;-65
2023/05/21 00:09:42;;;;;;;3.90;3.60;;;;;;;;;;5077648;28;20293;-65
2023/05/21 00:12:10;;;;;;;4.07;3.60;;;;;;;;;;5077502;28;20214;-64
2023/05/21 00:14:38;;;;;;;4.87;3.40;;;;;;;;;;5077744;28;20263;-65
2023/05/21 00:17:06;;;;;;;5.43;3.83;;;;;;;;;;5077716;28;20226;-64
2023/05/21 00:19:35;;;;;;;4.10;3.70;;;;;;;;;;5077414;28;20210;-64
2023/05/21 00:22:03;;;;;;;4.43;3.83;;;;;;;;;;5077388;28;20675;-64
2023/05/21 00:24:31;;;;;;;4.37;3.40;;;;;;;;;;5077243;28;20213;-65
2023/05/21 00:26:59;;;;;;;4.87;3.67;;;;;;;;;;5077256;28;20656;-64
2023/05/21 00:29:28;;;;;;;4.50;3.50;;;;;;;;;;5078377;28;20209;-65
2023/05/21 00:31:57;;;;;;;3.83;3.27;;;;;;;;;;5081356;28;20650;-65
2023/05/21 00:34:25;;;;;;;4.20;3.60;;;;;;;;;;5080562;28;20252;-65
2023/05/21 00:36:54;;;;;;;4.37;2.83;;;;;;;;;;5077129;28;20248;-64
2023/05/21 00:39:23;;;;;;;3.83;3.07;;;;;;;;;;5069815;28;20209;-64
2023/05/21 00:41:51;;;;;;;4.03;3.50;;;;;;;;;;5072707;28;20206;-65
2023/05/21 00:44:19;;;;;;;5.90;3.70;;;;;;;;;;5068623;28;20337;-65
2023/05/21 00:46:52;;;;;;;4.60;3.87;;;;;;;;;;5078806;28;20252;-65
2023/05/21 00:49:21;;;;;;;4.20;3.80;;;;;;;;;;5069894;28;20265;-65
2023/05/21 00:51:50;;;;;;;3.57;3.27;;;;;;;;;;5081266;28;20209;-63
2023/05/21 00:54:20;;;;;;;7.37;3.73;;;;;;;;;;5073908;28;20195;-64
2023/05/21 00:56:48;;;;;;;5.23;3.87;;;;;;;;;;5078036;28;20283;-65
2023/05/21 00:59:16;;;;;;;4.07;3.23;;;;;;;;;;5081243;28;20210;-64
2023/05/21 01:01:45;;;;;;;3.57;3.20;;;;;;;;;;5080661;28;20265;-65
2023/05/21 01:04:13;;;;;;;5.40;3.53;;;;;;;;;;5080904;28;20210;-65
2023/05/21 01:06:41;;;;;;;5.30;4.07;;;;;;;;;;5080731;28;20260;-64
2023/05/21 01:09:09;;;;;;;6.17;3.80;;;;;;;;;;5072853;28;20260;-64
2023/05/21 01:11:40;;;;;;;4.77;3.70;;;;;;;;;;5080925;28;20206;-64
2023/05/21 01:14:08;;;;;;;4.37;3.73;;;;;;;;;;5077869;28;20661;-65
2023/05/21 01:16:37;;;;;;;3.87;3.47;;;;;;;;;;5071404;28;20218;-65
2023/05/21 01:19:05;;;;;;;4.07;3.67;;;;;;;;;;5070028;28;20282;-65
2023/05/21 01:21:36;;;;;;;4.73;3.83;;;;;;;;;;5076586;28;20236;-65
2023/05/21 01:24:06;;;;;;;6.07;4.30;;;;;;;;;;5077079;28;20268;-65
2023/05/21 01:26:37;;;;;;;4.43;4.00;;;;;;;;;;5073742;28;20230;-65
2023/05/21 01:29:06;;;;;;;4.40;4.00;;;;;;;;;;5067250;28;20570;-64
2023/05/21 01:31:37;;;;;;;7.13;4.30;;;;;;;;;;5068728;28;20245;-65
2023/05/21 01:34:06;;;;;;;7.27;4.63;;;;;;;;;;5076957;28;20215;-65
2023/05/21 01:36:36;;;;;;;5.30;4.47;;;;;;;;;;5069108;28;20681;-65
2023/05/21 01:39:07;;;;;;;7.77;4.00;;;;;;;;;;5077200;28;20225;-65
2023/05/21 01:41:38;;;;;;;4.23;3.57;;;;;;;;;;5075235;28;20248;-65
2023/05/21 01:44:07;;;;;;;4.57;4.17;;;;;;;;;;5076418;28;20225;-65
2023/05/21 01:46:35;;;;;;;5.93;4.27;;;;;;;;;;5078770;28;20271;-65
2023/05/21 01:49:05;;;;;;;5.47;4.73;;;;;;;;;;5075646;28;20260;-65
2023/05/21 01:51:33;;;;;;;6.03;4.40;;;;;;;;;;5079020;28;20210;-65
2023/05/21 01:54:01;;;;;;;6.87;4.53;;;;;;;;;;5072411;28;20700;-65
2023/05/21 01:56:32;;;;;;;7.77;4.83;;;;;;;;;;5068679;28;20218;-65
2023/05/21 01:59:00;;;;;;;9.10;4.63;;;;;;;;;;5078968;28;20225;-64
2023/05/21 02:01:29;;;;;;;7.37;4.60;;;;;;;;;;5070613;28;20234;-65
2023/05/21 02:03:57;;;;;;;6.73;5.10;;;;;;;;;;5073720;28;20263;-65
2023/05/21 02:06:25;;;;;;;6.80;4.70;;;;;;;;;;5076879;28;20236;-65
2023/05/21 02:08:54;;;;;;;6.57;4.73;;;;;;;;;;5079425;28;20214;-65
2023/05/21 02:11:22;;;;;;;7.83;4.73;;;;;;;;;;5079272;28;20221;-66
2023/05/21 02:13:53;;;;;;;5.13;4.63;;;;;;;;;;5079548;28;20202;-65
2023/05/21 02:16:21;;;;;;;7.43;4.70;;;;;;;;;;5079359;28;20705;-65
2023/05/21 02:18:51;;;;;;;4.73;4.23;;;;;;;;;;5079180;28;20210;-66
2023/05/21 02:21:19;;;;;;;5.93;4.63;;;;;;;;;;5079438;28;20214;-66
2023/05/21 02:23:47;;;;;;;5.27;4.77;;;;;;;;;;5078960;28;20232;-65
2023/05/21 02:26:16;;;;;;;4.80;4.40;;;;;;;;;;5079007;28;20233;-65
2023/05/21 02:28:44;;;;;;;5.63;4.80;;;;;;;;;;5079240;28;20665;-65
2023/05/21 02:31:13;;;;;;;6.97;4.73;;;;;;;;;;5079410;28;20248;-64
2023/05/21 02:33:42;;;;;;;5.37;4.70;;;;;;;;;;5079094;28;20207;-65
2023/05/21 02:36:11;;;;;;;6.17;4.33;;;;;;;;;;5078905;28;20705;-64
2023/05/21 02:38:42;;;;;;;5.77;4.37;;;;;;;;;;5078977;28;20230;-65
2023/05/21 02:41:10;;;;;;;5.03;4.63;;;;;;;;;;5079227;28;20286;-65
2023/05/21 02:43:38;;;;;;;6.23;4.73;;;;;;;;;;5079251;28;20206;-64
2023/05/21 02:46:07;;;;;;;6.23;4.57;;;;;;;;;;5078740;28;20732;-64
2023/05/21 02:48:36;;;;;;;5.07;4.47;;;;;;;;;;5079004;28;20206;-64
2023/05/21 02:51:04;;;;;;;5.73;4.50;;;;;;;;;;5079141;28;20244;-64
2023/05/21 02:53:32;;;;;;;5.03;4.20;;;;;;;;;;5077965;28;20240;-64
2023/05/21 02:56:00;;;;;;;5.47;4.47;;;;;;;;;;5078554;28;20226;-64
2023/05/21 02:58:28;;;;;;;6.77;4.13;;;;;;;;;;5078723;28;20567;-64
2023/05/21 03:00:56;;;;;;;5.63;4.90;;;;;;;;;;5078409;28;20286;-64
2023/05/21 03:03:24;;;;;;;6.87;4.50;;;;;;;;;;5078307;28;20241;-64
2023/05/21 03:05:54;;;;;;;6.20;4.93;;;;;;;;;;5078721;28;20314;-64
2023/05/21 03:08:22;;;;;;;5.30;4.63;;;;;;;;;;5078155;28;20698;-64
2023/05/21 03:10:50;;;;;;;5.70;4.53;;;;;;;;;;5078460;28;20210;-64
2023/05/21 03:13:18;;;;;;;4.80;4.30;;;;;;;;;;5078581;28;20213;-65
2023/05/21 03:15:46;;;;;;;4.93;4.40;;;;;;;;;;5078556;28;20222;-65
2023/05/21 03:18:15;;;;;;;5.30;4.80;;;;;;;;;;5077959;28;20206;-65
2023/05/21 03:20:44;;;;;;;6.00;5.17;;;;;;;;;;5074548;28;20247;-65
2023/05/21 03:23:14;;;;;;;5.93;4.50;;;;;;;;;;5071841;28;20210;-65
2023/05/21 03:25:44;;;;;;;5.10;4.60;;;;;;;;;;5078361;28;20234;-65
2023/05/21 03:28:12;;;;;;;5.60;4.77;;;;;;;;;;5077937;28;20230;-65
2023/05/21 03:30:40;;;;;;;6.53;4.70;;;;;;;;;;5078191;28;20657;-66
2023/05/21 03:33:09;;;;;;;4.73;4.30;;;;;;;;;;5077733;28;20259;-65
2023/05/21 03:35:38;;;;;;;6.63;5.83;;;;;;;;;;5078270;28;20226;-66
2023/05/21 03:38:06;;;;;;;6.27;5.23;;;;;;;;;;5077846;28;20210;-65
2023/05/21 03:40:35;;;;;;;7.00;5.43;;;;;;;;;;5078249;28;20209;-64
2023/05/21 03:43:03;;;;;;;6.73;5.67;;;;;;;;;;5077840;28;20263;-65
2023/05/21 03:45:31;;;;;;;6.90;5.57;;;;;;;;;;5077895;28;20257;-64
2023/05/21 03:48:00;;;;;;;7.70;5.83;;;;;;;;;;5077454;28;20230;-65
2023/05/21 03:50:28;;;;;;;6.80;5.67;;;;;;;;;;5069697;28;20203;-64
2023/05/21 03:52:56;;;;;;;7.03;5.30;;;;;;;;;;5075080;28;20526;-65
2023/05/21 03:55:24;;;;;;;8.37;4.97;;;;;;;;;;5073346;28;20248;-64
2023/05/21 03:57:54;;;;;;;5.73;4.53;;;;;;;;;;5073942;28;20720;-64
2023/05/21 04:00:25;;;;;;;9.50;5.80;;;;;;;;;;5076647;28;20263;-64
2023/05/21 04:02:53;;;;;;;6.63;5.30;;;;;;;;;;5067027;28;20194;-64
2023/05/21 04:05:21;;;;;;;5.63;5.10;;;;;;;;;;5076506;28;20250;-65
2023/05/21 04:07:49;;;;;;;6.67;4.57;;;;;;;;;;5073850;28;20233;-64
2023/05/21 04:10:17;;;;;;;5.87;4.40;;;;;;;;;;5074054;28;20730;-65
2023/05/21 04:12:47;;;;;;;6.17;4.13;;;;;;;;;;5071678;28;20236;-64
2023/05/21 04:15:17;;;;;;;6.07;5.47;;;;;;;;;;5074736;28;20222;-65
2023/05/21 04:17:45;;;;;;;5.83;5.23;;;;;;;;;;5077837;28;20206;-65
2023/05/21 04:20:15;;;;;;;6.17;5.17;;;;;;;;;;5072938;28;20289;-65
2023/05/21 04:22:43;;;;;;;6.47;5.60;;;;;;;;;;5066576;28;20234;-65
2023/05/21 04:25:12;;;;;;;6.23;4.83;;;;;;;;;;5073398;28;20223;-65
2023/05/21 04:27:41;;;;;;;5.40;4.90;;;;;;;;;;5069007;28;20624;-64
2023/05/21 04:30:09;;;;;;;6.93;5.40;;;;;;;;;;5065994;28;20205;-65
2023/05/21 04:32:39;;;;;;;5.70;5.20;;;;;;;;;;5066338;28;20252;-64
2023/05/21 04:35:08;;;;;;;7.40;6.17;;;;;;;;;;5067342;28;20231;-65
2023/05/21 04:37:40;;;;;;;5.80;5.30;;;;;;;;;;5068066;28;20264;-65
2023/05/21 04:40:09;;;;;;;6.67;5.37;;;;;;;;;;5076803;28;20210;-65
2023/05/21 04:42:37;;;;;;;5.83;5.27;;;;;;;;;;5077333;28;20210;-65
2023/05/21 04:45:06;;;;;;;6.03;5.27;;;;;;;;;;5077049;28;20213;-65
2023/05/21 04:47:34;;;;;;;5.83;5.33;;;;;;;;;;5077131;28;20280;-65
2023/05/21 04:50:04;;;;;;;7.97;5.67;;;;;;;;;;5076923;28;20746;-65
2023/05/21 04:52:33;;;;;;;15.93;5.93;;;;;;;;;;5077103;28;20255;-65
2023/05/21 04:55:01;;;;;;;6.10;5.50;;;;;;;;;;5077192;28;20210;-65
2023/05/21 04:57:29;;;;;;;6.63;6.00;;;;;;;;;;5077411;28;20206;-65
2023/05/21 04:59:57;;;;;;;6.17;5.57;;;;;;;;;;5077127;28;20210;-65
2023/05/21 05:02:25;;;;;;;6.60;6.00;;;;;;;;;;5077060;28;20242;-65
2023/05/21 05:04:53;;;;;;;10.50;6.07;;;;;;;;;;5076772;28;20610;-65
2023/05/21 05:07:23;;;;;;;7.77;5.90;;;;;;;;;;5076953;28;20233;-65
2023/05/21 05:09:51;;;;;;;6.17;5.53;;;;;;;;;;5077212;28;20206;-65
2023/05/21 05:12:18;;;;;;;5.80;5.20;;;;;;;;;;5077279;28;20202;-65
2023/05/21 05:14:46;;;;;;;5.90;5.40;;;;;;;;;;5077075;28;20210;-65
2023/05/21 05:17:14;;;;;;;6.23;5.40;;;;;;;;;;5079743;28;20259;-65
2023/05/21 05:19:42;;;;;;;6.23;5.63;;;;;;;;;;5080585;28;20236;-65
2023/05/21 05:22:10;;;;;;;6.63;5.77;;;;;;;;;;5078119;28;20202;-65
2023/05/21 05:24:41;;;;;;;6.60;5.50;;;;;;;;;;5072527;28;20210;-65
2023/05/21 05:27:09;;;;;;;5.87;5.27;;;;;;;;;;5075796;28;20227;-65
2023/05/21 05:29:37;;;;;;;7.03;5.20;;;;;;;;;;5080530;28;20244;-65
2023/05/21 05:32:06;;;;;;;6.27;5.67;;;;;;;;;;5080555;28;20252;-66
2023/05/21 05:34:34;;;;;;;7.87;4.90;;;;;;;;;;5080174;28;20241;-65
2023/05/21 05:37:03;;;;;;;6.00;5.40;;;;;;;;;;5080582;28;20226;-66
2023/05/21 05:39:31;;;;;;;5.80;5.20;;;;;;;;;;5080112;28;20255;-65
2023/05/21 05:42:00;;;;;;;5.60;5.03;;;;;;;;;;5080193;28;20206;-65
2023/05/21 05:44:28;;;;;;;5.93;5.37;;;;;;;;;;5080364;28;20210;-65
2023/05/21 05:46:56;;;;;;;6.00;5.40;;;;;;;;;;5080449;28;20387;-65
2023/05/21 05:49:24;;;;;;;5.33;4.83;;;;;;;;;;5079996;28;20259;-65
2023/05/21 05:51:52;;;;;;;6.37;5.43;;;;;;;;;;5079820;28;20280;-65
2023/05/21 05:54:20;;;;;;;6.00;5.30;;;;;;;;;;5080136;28;20214;-65
2023/05/21 05:56:48;;;;;;;6.43;5.23;;;;;;;;;;5079863;28;20685;-65
2023/05/21 05:59:17;;;;;;;7.30;5.83;;;;;;;;;;5080092;28;20198;-65
2023/05/21 06:01:45;;;;;;;5.80;5.20;;;;;;;;;;5079754;28;20266;-65
2023/05/21 06:04:13;;;;;;;20.07;12.87;;;;;;;;;;5079790;28;20233;-64
2023/05/21 06:06:41;;;;;;;7.07;6.23;;;;;;;;;;5079878;28;20226;-65
2023/05/21 06:09:09;;;;;;;7.57;5.60;;;;;;;;;;5079723;28;20265;-65
2023/05/21 06:11:38;;;;;;;7.13;5.40;;;;;;;;;;5079862;28;20208;-65
2023/05/21 06:14:06;;;;;;;8.60;5.40;;;;;;;;;;5076436;28;20732;-65
2023/05/21 06:16:36;;;;;;;6.47;5.87;;;;;;;;;;5079426;28;20222;-64
2023/05/21 06:19:04;;;;;;;8.90;6.00;;;;;;;;;;5079460;28;20207;-64
2023/05/21 06:21:32;;;;;;;6.03;5.30;;;;;;;;;;5070311;28;20195;-64
2023/05/21 06:24:00;;;;;;;9.67;6.10;;;;;;;;;;5077534;28;20198;-64
2023/05/21 06:26:28;;;;;;;6.17;5.57;;;;;;;;;;5079164;28;20229;-64
2023/05/21 06:28:56;;;;;;;7.33;5.90;;;;;;;;;;5078720;28;20230;-64
2023/05/21 06:31:24;;;;;;;6.73;5.37;;;;;;;;;;5075134;28;20198;-64
2023/05/21 06:33:53;;;;;;;6.00;5.40;;;;;;;;;;5066757;28;20727;-64
2023/05/21 06:36:21;;;;;;;6.33;5.73;;;;;;;;;;5071996;28;20226;-64
2023/05/21 06:38:49;;;;;;;6.57;5.97;;;;;;;;;;5074823;28;20209;-64
2023/05/21 06:41:17;;;;;;;6.60;6.00;;;;;;;;;;5074834;28;20202;-64
2023/05/21 06:43:45;;;;;;;6.30;5.63;;;;;;;;;;5075176;28;20233;-64
2023/05/21 06:46:13;;;;;;;8.30;5.97;;;;;;;;;;5077487;28;20214;-65
2023/05/21 06:48:41;;;;;;;7.90;5.47;;;;;;;;;;5070188;28;20229;-65
2023/05/21 06:51:11;;;;;;;6.63;6.03;;;;;;;;;;5075804;28;20205;-65
2023/05/21 06:53:39;;;;;;;6.40;5.80;;;;;;;;;;5069426;28;20206;-64
2023/05/21 06:56:07;;;;;;;6.53;5.93;;;;;;;;;;5073662;28;20237;-64
2023/05/21 06:58:35;;;;;;;6.93;6.23;;;;;;;;;;5078662;28;20207;-64
2023/05/21 07:01:03;;;;;;;8.67;5.70;;;;;;;;;;5078502;28;20269;-64
2023/05/21 07:03:31;;;;;;;7.47;6.00;;;;;;;;;;5078799;28;20206;-64
2023/05/21 07:05:59;;;;;;;7.20;6.50;;;;;;;;;;5078566;28;20701;-64
2023/05/21 07:08:29;;;;;;;6.33;5.70;;;;;;;;;;5078512;28;20233;-64
2023/05/21 07:10:57;;;;;;;7.70;6.47;;;;;;;;;;5078374;28;20238;-61
2023/05/21 07:13:25;;;;;;;6.83;6.13;;;;;;;;;;5072901;28;20655;-62
2023/05/21 07:15:53;;;;;;;6.70;6.07;;;;;;;;;;5073744;28;20237;-62
2023/05/21 07:18:21;;;;;;;6.07;5.50;;;;;;;;;;5078449;28;20203;-61
2023/05/21 07:20:49;;;;;;;7.00;6.40;;;;;;;;;;5077976;28;20225;-61
2023/05/21 07:23:17;;;;;;;10.63;6.77;;;;;;;;;;5078154;28;20666;-61
2023/05/21 07:25:46;;;;;;;6.90;6.20;;;;;;;;;;5074893;28;20226;-61
2023/05/21 07:28:14;;;;;;;8.63;6.57;;;;;;;;;;5078056;28;20198;-61
2023/05/21 07:30:42;;;;;;;7.03;6.17;;;;;;;;;;5077792;28;20222;-61
2023/05/21 07:33:11;;;;;;;6.70;5.93;;;;;;;;;;5077583;28;20198;-61
2023/05/21 07:35:39;;;;;;;8.70;6.77;;;;;;;;;;5077933;28;20222;-60
2023/05/21 07:38:07;;;;;;;7.17;6.47;;;;;;;;;;5078129;28;20222;-60
2023/05/21 07:40:35;;;;;;;7.27;6.60;;;;;;;;;;5077557;28;20201;-60
2023/05/21 07:43:05;;;;;;;9.17;6.83;;;;;;;;;;5078100;28;20206;-62
2023/05/21 07:45:33;;;;;;;7.90;6.67;;;;;;;;;;5077925;28;20222;-62
2023/05/21 07:48:01;;;;;;;11.50;7.43;;;;;;;;;;5064497;28;20294;-62
2023/05/21 07:50:30;;;;;;;7.80;7.00;;;;;;;;;;5076406;28;20254;-61
2023/05/21 07:52:58;;;;;;;8.97;6.70;;;;;;;;;;5074003;28;20229;-60
2023/05/21 07:55:26;;;;;;;8.17;6.47;;;;;;;;;;5078004;28;20222;-60
2023/05/21 07:57:54;;;;;;;7.87;6.40;;;;;;;;;;5077850;28;20214;-62
2023/05/21 08:00:24;;;;;;;7.53;6.73;;;;;;;;;;5076230;28;20242;-63
2023/05/21 08:02:52;;;;;;;11.13;7.30;;;;;;;;;;5076193;28;20233;-62
2023/05/21 08:05:22;;;;;;;9.03;6.90;;;;;;;;;;5074101;28;20579;-63
2023/05/21 08:07:50;;;;;;;10.10;7.30;;;;;;;;;;5076286;28;20673;-63
2023/05/21 08:10:18;;;;;;;10.97;7.03;;;;;;;;;;5073557;28;20218;-63
2023/05/21 08:12:46;;;;;;;7.73;6.93;;;;;;;;;;5076377;28;20209;-62
2023/05/21 08:15:14;;;;;;;8.13;7.27;;;;;;;;;;5077486;28;20225;-62
2023/05/21 08:17:43;;;;;;;8.03;7.23;;;;;;;;;;5073603;28;20207;-66
2023/05/21 08:20:13;;;;;;;6.97;6.27;;;;;;;;;;5074036;28;20198;-65
2023/05/21 08:22:42;;;;;;;9.13;6.90;;;;;;;;;;5077052;28;20280;-66
2023/05/21 08:25:10;;;;;;;12.17;7.47;;;;;;;;;;5077679;28;20222;-65
2023/05/21 08:27:38;;;;;;;8.57;6.47;;;;;;;;;;5077298;28;20682;-66
2023/05/21 08:30:06;;;;;;;7.10;6.40;;;;;;;;;;5077544;28;20229;-65
2023/05/21 08:32:34;;;;;;;10.43;7.10;;;;;;;;;;5077676;28;20213;-65
2023/05/21 08:35:04;;;;;;;9.30;7.03;;;;;;;;;;5077131;28;20206;-67
2023/05/21 08:37:32;;;;;;;8.77;7.17;;;;;;;;;;5074378;28;20257;-65
2023/05/21 08:40:00;;;;;;;9.23;8.20;;;;;;;;;;5069036;28;20199;-64
2023/05/21 08:42:33;;;;;;;9.03;7.60;;;;;;;;;;5077111;28;20288;-64
2023/05/21 08:45:05;;;;;;;8.43;7.10;;;;;;;;;;5077165;28;20202;-65
2023/05/21 08:47:34;;;;;;;8.43;7.30;;;;;;;;;;5077384;28;20573;-64
2023/05/21 08:50:05;;;;;;;8.33;7.50;;;;;;;;;;5076628;28;20697;-64
2023/05/21 08:52:33;;;;;;;8.30;7.43;;;;;;;;;;5079955;28;20210;-64
2023/05/21 08:55:02;;;;;;;9.60;8.07;;;;;;;;;;5080430;28;20681;-64
2023/05/21 08:57:30;;;;;;;7.53;6.80;;;;;;;;;;5080958;28;20204;-64
2023/05/21 08:59:58;;;;;;;8.37;7.43;;;;;;;;;;5080942;28;20251;-64
2023/05/21 09:02:26;;;;;;;9.07;7.87;;;;;;;;;;5080593;28;20757;-64
2023/05/21 09:04:57;;;;;;;8.57;7.53;;;;;;;;;;5079975;28;20206;-64
2023/05/21 09:07:27;;;;;;;11.53;8.20;;;;;;;;;;5080287;28;20206;-64
2023/05/21 09:09:57;;;;;;;8.90;7.97;;;;;;;;;;5080513;28;20275;-64
2023/05/21 09:12:25;;;;;;;7.80;7.10;;;;;;;;;;5080348;28;20235;-64
2023/05/21 09:14:53;;;;;;;8.50;7.67;;;;;;;;;;5080218;28;20203;-64
2023/05/21 09:17:21;;;;;;;11.40;8.10;;;;;;;;;;5080267;28;20208;-65
2023/05/21 09:20:07;;;;;;;8.67;7.77;;;;;;;;;;5080064;28;20210;-64
2023/05/21 09:22:37;;;;;;;10.73;7.70;;;;;;;;;;5080239;28;20233;-64
2023/05/21 09:25:06;;;;;;;8.50;7.10;;;;;;;;;;5079987;28;20240;-64
2023/05/21 09:27:35;;;;;;;10.27;7.67;;;;;;;;;;5080244;28;20574;-65
2023/05/21 09:30:03;;;;;;;9.47;7.50;;;;;;;;;;5080003;28;20693;-65
2023/05/21 09:32:31;;;;;;;9.43;8.40;;;;;;;;;;5074150;28;20226;-64
2023/05/21 09:35:06;;;;;;;8.30;7.50;;;;;;;;;;5079034;28;20214;-65
2023/05/21 09:37:38;;;;;;;9.23;7.50;;;;;;;;;;5080006;28;20244;-65
2023/05/21 09:40:13;;;;;;;11.73;7.93;;;;;;;;;;5079933;28;20202;-64
2023/05/21 09:42:41;;;;;;;8.30;7.40;;;;;;;;;;5078601;28;20198;-64
2023/05/21 09:45:09;;;;;;;8.77;7.87;;;;;;;;;;5076865;28;20226;-64
2023/05/21 09:47:41;;;;;;;8.80;7.93;;;;;;;;;;5079177;28;20221;-65
2023/05/21 09:50:10;;;;;;;9.30;7.33;;;;;;;;;;5077197;28;20198;-66
2023/05/21 09:52:40;;;;;;;8.17;7.23;;;;;;;;;;5079487;28;20209;-66
2023/05/21 09:55:11;;;;;;;8.03;7.00;;;;;;;;;;5079904;28;20222;-66
2023/05/21 09:57:42;;;;;;;8.60;7.60;;;;;;;;;;5079702;28;20202;-65
2023/05/21 10:00:18;;;;;;;7.60;6.80;;;;;;;;;;5079539;28;20213;-65
2023/05/21 10:02:46;;;;;;;8.03;7.23;;;;;;;;;;5079073;28;20340;-65
2023/05/21 10:05:15;;;;;;;10.43;7.70;;;;;;;;;;5079630;28;20257;-65
2023/05/21 10:07:49;;;;;;;9.23;7.47;;;;;;;;;;5079616;28;20217;-65
2023/05/21 10:10:18;;;;;;;9.27;7.57;;;;;;;;;;5079566;28;20727;-65
2023/05/21 10:12:47;;;;;;;9.33;8.07;;;;;;;;;;5079840;28;20264;-65
2023/05/21 10:15:16;;;;;;;8.20;7.40;;;;;;;;;;5076802;28;20229;-65
2023/05/21 10:17:44;;;;;;;8.07;6.87;;;;;;;;;;5076360;28;20198;-65
2023/05/21 10:20:13;;;;;;;7.53;6.80;;;;;;;;;;5078807;28;20213;-65
2023/05/21 10:22:42;;;;;;;8.53;7.73;;;;;;;;;;5079144;28;20198;-65
2023/05/21 10:25:13;;;;;;;10.87;8.40;;;;;;;;;;5078739;28;20230;-65
2023/05/21 10:27:41;;;;;;;9.57;7.93;;;;;;;;;;5079224;28;20202;-65
2023/05/21 10:30:12;;;;;;;8.73;7.90;;;;;;;;;;5079136;28;20657;-66
2023/05/21 10:32:40;;;;;;;8.50;7.40;;;;;;;;;;5078941;28;20253;-66
2023/05/21 10:35:09;;;;;;;9.70;7.60;;;;;;;;;;5079430;28;20257;-64
2023/05/21 10:37:37;;;;;;;9.37;8.00;;;;;;;;;;5078987;28;20210;-64
2023/05/21 10:40:06;;;;;;;9.33;7.57;;;;;;;;;;5078991;28;20569;-65
2023/05/21 10:42:51;;;;;;;10.97;7.87;;;;;;;;;;5069892;28;20205;-64
2023/05/21 10:45:26;;;;;;;8.07;7.30;;;;;;;;;;5074466;28;20222;-64
2023/05/21 10:48:03;;;;;;;10.77;8.13;;;;;;;;;;5076402;28;20281;-63
2023/05/21 10:50:56;;;;;;;8.33;7.43;;;;;;;;;;5076264;28;20198;-64
2023/05/21 10:53:27;;;;;;;7.67;6.97;;;;;;;;;;5078206;28;20277;-63
2023/05/21 10:56:06;;;;;;;11.53;8.10;;;;;;;;;;5078232;28;20226;-63
2023/05/21 10:58:51;;;;;;;8.43;7.67;;;;;;;;;;5078353;28;20672;-64
2023/05/21 11:01:22;;;;;;;10.37;7.83;;;;;;;;;;5066588;28;20230;-64
2023/05/21 11:03:50;;;;;;;8.57;7.70;;;;;;;;;;5077546;28;20230;-63
2023/05/21 11:06:25;;;;;;;8.17;7.37;;;;;;;;;;5077814;28;20318;-63
2023/05/21 11:08:54;;;;;;;8.30;7.50;;;;;;;;;;5076539;28;20198;-62
2023/05/21 11:11:41;;;;;;;8.13;7.17;;;;;;;;;;5075224;28;20305;-62
2023/05/21 11:14:30;;;;;;;5.77;5.17;;;;;;;;;;5077460;28;20216;-64
2023/05/21 11:17:00;;;;;;;7.60;6.90;;;;;;;;;;5075910;28;20229;-64
2023/05/21 11:19:35;;;;;;;7.37;6.23;;;;;;;;;;5077955;28;20285;-64
2023/05/21 11:22:20;;;;;;;6.80;6.20;;;;;;;;;;5077708;28;20213;-63
2023/05/21 11:24:48;;;;;;;7.97;7.17;;;;;;;;;;5077935;28;20293;-64
2023/05/21 11:27:31;;;;;;;6.67;6.00;;;;;;;;;;5078684;28;20267;-63
2023/05/21 11:29:59;;;;;;;6.23;5.63;;;;;;;;;;5078189;28;20244;-63
2023/05/21 11:32:30;;;;;;;5.70;4.90;;;;;;;;;;5078022;28;20689;-64
2023/05/21 11:35:00;;;;;;;7.90;5.60;;;;;;;;;;5077807;28;20210;-64
2023/05/21 11:37:33;;;;;;;7.23;6.50;;;;;;;;;;5078115;28;20206;-65
2023/05/21 11:40:21;;;;;;;6.93;6.23;;;;;;;;;;5078002;28;20373;-65
2023/05/21 11:42:50;;;;;;;7.07;6.00;;;;;;;;;;5063957;28;20195;-65
2023/05/21 11:45:18;;;;;;;6.70;5.90;;;;;;;;;;5077601;28;20226;-64
2023/05/21 11:47:48;;;;;;;6.23;5.63;;;;;;;;;;5074604;28;20218;-63
2023/05/21 11:50:17;;;;;;;7.37;5.83;;;;;;;;;;5074159;28;20209;-63
2023/05/21 11:52:45;;;;;;;7.33;6.60;;;;;;;;;;5077505;28;20222;-63
2023/05/21 11:55:14;;;;;;;6.87;6.03;;;;;;;;;;5076884;28;20599;-63
2023/05/21 11:57:43;;;;;;;6.70;5.93;;;;;;;;;;5076294;28;20198;-64
2023/05/21 12:00:15;;;;;;;6.13;5.50;;;;;;;;;;5076186;28;20209;-64
2023/05/21 12:02:45;;;;;;;8.97;8.00;;;;;;;;;;5076515;28;20198;-65
2023/05/21 12:05:15;;;;;;;7.20;6.47;;;;;;;;;;5076621;28;20318;-64
2023/05/21 12:07:47;;;;;;;7.57;6.77;;;;;;;;;;5076863;28;20556;-64
2023/05/21 12:10:15;;;;;;;7.20;6.23;;;;;;;;;;5071092;28;20259;-66
2023/05/21 12:12:43;;;;;;;6.80;6.10;;;;;;;;;;5076969;28;20219;-64
2023/05/21 12:15:23;;;;;;;9.13;6.83;;;;;;;;;;5077186;28;20717;-64
2023/05/21 12:17:52;;;;;;;6.60;5.90;;;;;;;;;;5077398;28;20211;-64
2023/05/21 12:20:22;;;;;;;5.87;5.27;;;;;;;;;;5077391;28;20641;-64
2023/05/21 12:22:50;;;;;;;7.03;6.33;;;;;;;;;;5077677;28;20202;-64
2023/05/21 12:25:19;;;;;;;6.20;5.60;;;;;;;;;;5078393;28;20262;-64
2023/05/21 12:27:49;;;;;;;9.17;6.43;;;;;;;;;;5081624;28;20684;-65
2023/05/21 12:30:17;;;;;;;6.37;5.30;;;;;;;;;;5081864;28;20209;-64
2023/05/21 12:32:45;;;;;;;6.10;5.43;;;;;;;;;;5081085;28;20257;-64
2023/05/21 12:35:24;;;;;;;6.67;6.00;;;;;;;;;;5081243;28;20230;-65
2023/05/21 12:37:52;;;;;;;8.23;6.80;;;;;;;;;;5081095;28;20205;-63
2023/05/21 12:40:20;;;;;;;7.40;6.73;;;;;;;;;;5081510;28;20205;-64
2023/05/21 12:42:49;;;;;;;7.70;6.07;;;;;;;;;;5081428;28;20213;-63
2023/05/21 12:45:17;;;;;;;6.80;6.20;;;;;;;;;;5070862;28;20275;-64
2023/05/21 12:47:47;;;;;;;7.13;6.43;;;;;;;;;;5070941;28;20222;-64
2023/05/21 12:50:19;;;;;;;6.60;6.00;;;;;;;;;;5080860;28;20206;-62
2023/05/21 12:52:49;;;;;;;7.10;6.40;;;;;;;;;;5080795;28;20758;-64
2023/05/21 12:55:17;;;;;;;7.30;6.23;;;;;;;;;;5080922;28;20226;-64
2023/05/21 12:57:45;;;;;;;6.93;6.23;;;;;;;;;;5081034;28;20210;-63
2023/05/21 13:00:13;;;;;;;6.80;6.10;;;;;;;;;;5080681;28;20221;-64
2023/05/21 13:02:42;;;;;;;9.83;6.50;;;;;;;;;;5080470;28;20224;-63
2023/05/21 13:05:15;;;;;;;7.20;6.40;;;;;;;;;;5080969;28;20268;-64
2023/05/21 13:07:45;;;;;;;6.63;6.03;;;;;;;;;;5080667;28;20210;-63
2023/05/21 13:10:16;;;;;;;7.23;6.53;;;;;;;;;;5080425;28;20255;-63
2023/05/21 13:12:44;;;;;;;7.60;6.70;;;;;;;;;;5080108;28;20230;-63
2023/05/21 13:15:12;;;;;;;6.97;6.13;;;;;;;;;;5080413;28;20261;-63
2023/05/21 13:17:41;;;;;;;7.60;6.90;;;;;;;;;;5080092;28;20206;-64
2023/05/21 13:20:11;;;;;;;7.10;6.40;;;;;;;;;;5080446;28;20202;-65
2023/05/21 13:22:41;;;;;;;9.73;6.70;;;;;;;;;;5080120;28;20647;-64
2023/05/21 13:25:10;;;;;;;7.07;6.37;;;;;;;;;;5080107;28;20257;-64
2023/05/21 13:27:41;;;;;;;7.40;6.70;;;;;;;;;;5080037;28;20210;-63
2023/05/21 13:30:10;;;;;;;7.23;6.53;;;;;;;;;;5080297;28;20214;-65
2023/05/21 13:32:39;;;;;;;6.80;6.00;;;;;;;;;;5079664;28;20229;-63
2023/05/21 13:35:07;;;;;;;6.77;6.07;;;;;;;;;;5079975;28;20250;-65
2023/05/21 13:37:36;;;;;;;6.90;6.20;;;;;;;;;;5079027;28;20214;-63
2023/05/21 13:40:04;;;;;;;9.47;6.20;;;;;;;;;;5079685;28;20233;-64
2023/05/21 13:42:32;;;;;;;6.73;5.67;;;;;;;;;;5079994;28;20704;-65
2023/05/21 13:45:02;;;;;;;6.77;6.10;;;;;;;;;;5080038;28;20233;-64
2023/05/21 13:47:30;;;;;;;7.67;6.43;;;;;;;;;;5079962;28;20213;-64
2023/05/21 13:49:58;;;;;;;7.57;6.70;;;;;;;;;;5080018;28;20208;-64
2023/05/21 13:52:26;;;;;;;6.37;5.77;;;;;;;;;;5080071;28;20230;-64
2023/05/21 13:54:54;;;;;;;8.93;6.13;;;;;;;;;;5079792;28;20217;-64
2023/05/21 13:57:22;;;;;;;7.00;6.30;;;;;;;;;;5079788;28;20206;-65
2023/05/21 13:59:50;;;;;;;7.13;6.43;;;;;;;;;;5080036;28;20213;-63
2023/05/21 14:02:19;;;;;;;8.70;6.47;;;;;;;;;;5079638;28;20238;-63
2023/05/21 14:04:47;;;;;;;6.67;6.10;;;;;;;;;;5079644;28;20708;-64
2023/05/21 14:07:15;;;;;;;7.17;6.47;;;;;;;;;;5079837;28;20210;-63
2023/05/21 14:09:43;;;;;;;5.97;5.47;;;;;;;;;;5079616;28;20206;-65
2023/05/21 14:12:11;;;;;;;6.50;5.73;;;;;;;;;;5080130;28;20293;-64
2023/05/21 14:14:39;;;;;;;6.80;6.20;;;;;;;;;;5080628;28;20260;-64
2023/05/21 14:17:07;;;;;;;7.93;5.97;;;;;;;;;;5080350;28;20225;-63
2023/05/21 14:19:37;;;;;;;9.43;6.80;;;;;;;;;;5073199;28;20199;-62
2023/05/21 14:22:05;;;;;;;6.97;5.97;;;;;;;;;;5075547;28;20206;-64
2023/05/21 14:24:33;;;;;;;7.00;6.10;;;;;;;;;;5079570;28;20210;-64
2023/05/21 14:27:01;;;;;;;6.93;6.13;;;;;;;;;;5079175;28;20226;-63
2023/05/21 14:29:29;;;;;;;6.73;6.07;;;;;;;;;;5079156;28;20233;-63
2023/05/21 14:31:57;;;;;;;8.73;6.90;;;;;;;;;;5079426;28;20221;-63
2023/05/21 14:34:25;;;;;;;6.57;5.97;;;;;;;;;;5079177;28;20222;-63
2023/05/21 14:36:54;;;;;;;7.60;6.50;;;;;;;;;;5079312;28;20226;-65
2023/05/21 14:39:22;;;;;;;8.20;6.53;;;;;;;;;;5078961;28;20276;-64
2023/05/21 14:41:50;;;;;;;8.63;7.03;;;;;;;;;;5078953;28;20665;-63
2023/05/21 14:44:18;;;;;;;6.50;5.90;;;;;;;;;;5079166;28;20202;-64
2023/05/21 14:46:46;;;;;;;7.80;6.97;;;;;;;;;;5078768;28;20625;-64
2023/05/21 14:49:14;;;;;;;7.93;6.33;;;;;;;;;;5078561;28;20213;-63
2023/05/21 14:51:43;;;;;;;6.87;5.87;;;;;;;;;;5078944;28;20214;-63
2023/05/21 14:54:13;;;;;;;7.30;6.60;;;;;;;;;;5078948;28;20230;-63
2023/05/21 14:56:41;;;;;;;7.20;6.43;;;;;;;;;;5078767;28;20235;-65